Terminal Aerodrome Forecast
Issued by NWS Lake Charles, LA

Home | Current Version | Previous Version | Text Only | Print | Product List | Glossary On
Versions: 1 2 3 4 5 6 7 8 9 10 11 12 13 14 15 16 17 18 19
000
FTUS44 KLCH 231700 RRA
TAFLFT
TAF
KLFT 231745Z 2318/2418 VRB05KT P6SM BKN050
     FM232000 17007KT P6SM SCT050
     FM240500 VRB03KT 4SM BR SCT007
     FM240800 VRB03KT 2SM BR OVC007
     FM241500 18008KT P6SM BKN025=

USA.gov is the U.S. government's official web portal to all federal, state and local government web resources and services.